sensor_id;sensor_type;location;lat;lon;timestamp;pressure;altitude;pressure_sealevel;temperature;humidity
49102;BME280;34913;47.520;19.186;2022-10-12T00:01:16;100668.81;;;10.77;100.00
49102;BME280;34913;47.520;19.186;2022-10-12T00:03:41;100677.41;;;10.80;100.00
49102;BME280;34913;47.520;19.186;2022-10-12T00:06:13;100679.63;;;10.86;100.00
49102;BME280;34913;47.520;19.186;2022-10-12T00:08:40;100681.81;;;10.93;100.00
49102;BME280;34913;47.520;19.186;2022-10-12T00:11:07;100687.19;;;11.04;100.00
49102;BME280;34913;47.520;19.186;2022-10-12T00:13:35;100678.34;;;11.16;100.00
49102;BME280;34913;47.520;19.186;2022-10-12T00:16:06;100682.84;;;11.27;100.00
49102;BME280;34913;47.520;19.186;2022-10-12T00:18:32;100682.25;;;11.34;100.00
49102;BME280;34913;47.520;19.186;2022-10-12T00:21:08;100677.94;;;11.44;100.00
49102;BME280;34913;47.520;19.186;2022-10-12T00:23:35;100685.47;;;11.51;100.00
49102;BME280;34913;47.520;19.186;2022-10-12T00:26:04;100682.47;;;11.55;100.00
49102;BME280;34913;47.520;19.186;2022-10-12T00:28:30;100684.66;;;11.61;100.00
49102;BME280;34913;47.520;19.186;2022-10-12T00:30:56;100688.91;;;11.64;100.00
49102;BME280;34913;47.520;19.186;2022-10-12T00:33:21;100682.47;;;11.55;100.00
49102;BME280;34913;47.520;19.186;2022-10-12T00:35:46;100681.22;;;11.48;100.00
49102;BME280;34913;47.520;19.186;2022-10-12T00:38:12;100691.34;;;11.43;100.00
49102;BME280;34913;47.520;19.186;2022-10-12T00:40:37;100690.88;;;11.38;100.00
49102;BME280;34913;47.520;19.186;2022-10-12T00:43:03;100683.56;;;11.29;100.00
49102;BME280;34913;47.520;19.186;2022-10-12T00:45:29;100685.72;;;11.24;100.00
49102;BME280;34913;47.520;19.186;2022-10-12T00:47:56;100681.16;;;11.26;100.00
49102;BME280;34913;47.520;19.186;2022-10-12T00:50:29;100692.50;;;11.28;100.00
49102;BME280;34913;47.520;19.186;2022-10-12T00:53:01;100686.97;;;11.31;100.00
49102;BME280;34913;47.520;19.186;2022-10-12T00:55:30;100682.13;;;11.36;100.00
49102;BME280;34913;47.520;19.186;2022-10-12T00:57:57;100686.72;;;11.34;100.00
49102;BME280;34913;47.520;19.186;2022-10-12T01:00:24;100686.00;;;11.32;100.00
49102;BME280;34913;47.520;19.186;2022-10-12T01:02:52;100686.47;;;11.26;100.00
49102;BME280;34913;47.520;19.186;2022-10-12T01:05:18;100681.19;;;11.13;100.00
49102;BME280;34913;47.520;19.186;2022-10-12T01:07:44;100686.03;;;11.08;100.00
49102;BME280;34913;47.520;19.186;2022-10-12T01:10:10;100679.66;;;10.98;100.00
49102;BME280;34913;47.520;19.186;2022-10-12T01:12:37;100686.91;;;10.96;100.00
49102;BME280;34913;47.520;19.186;2022-10-12T01:15:05;100693.19;;;10.95;100.00
49102;BME280;34913;47.520;19.186;2022-10-12T01:17:43;100689.91;;;10.91;100.00
49102;BME280;34913;47.520;19.186;2022-10-12T01:34:17;100698.25;;;10.98;100.00
49102;BME280;34913;47.520;19.186;2022-10-12T01:36:50;100704.06;;;10.79;100.00
49102;BME280;34913;47.520;19.186;2022-10-12T01:39:25;100706.31;;;10.72;100.00
49102;BME280;34913;47.520;19.186;2022-10-12T01:41:56;100706.97;;;10.63;100.00
49102;BME280;34913;47.520;19.186;2022-10-12T01:44:25;100709.16;;;10.45;100.00
49102;BME280;34913;47.520;19.186;2022-10-12T01:46:52;100709.03;;;10.34;100.00
49102;BME280;34913;47.520;19.186;2022-10-12T01:49:29;100710.22;;;10.30;100.00
49102;BME280;34913;47.520;19.186;2022-10-12T01:52:17;100713.59;;;10.19;100.00
49102;BME280;34913;47.520;19.186;2022-10-12T01:57:52;100713.59;;;10.32;100.00
49102;BME280;34913;47.520;19.186;2022-10-12T02:00:22;100702.03;;;10.33;100.00
49102;BME280;34913;47.520;19.186;2022-10-12T02:03:04;100705.53;;;10.46;100.00
49102;BME280;34913;47.520;19.186;2022-10-12T02:05:52;100708.41;;;10.43;100.00
49102;BME280;34913;47.520;19.186;2022-10-12T02:11:12;100704.56;;;10.47;100.00
49102;BME280;34913;47.520;19.186;2022-10-12T02:13:42;100712.22;;;10.52;100.00
49102;BME280;34913;47.520;19.186;2022-10-12T02:16:13;100707.09;;;10.49;100.00
49102;BME280;34913;47.520;19.186;2022-10-12T02:18:43;100709.56;;;10.39;100.00
49102;BME280;34913;47.520;19.186;2022-10-12T02:21:11;100706.19;;;10.37;100.00
49102;BME280;34913;47.520;19.186;2022-10-12T02:23:38;100701.31;;;10.31;100.00
49102;BME280;34913;47.520;19.186;2022-10-12T02:26:04;100701.19;;;10.32;100.00
49102;BME280;34913;47.520;19.186;2022-10-12T02:28:31;100703.66;;;10.23;100.00
49102;BME280;34913;47.520;19.186;2022-10-12T02:34:01;100701.50;;;10.15;100.00
49102;BME280;34913;47.520;19.186;2022-10-12T02:36:36;100697.38;;;10.11;100.00
49102;BME280;34913;47.520;19.186;2022-10-12T02:39:08;100701.28;;;10.05;100.00
49102;BME280;34913;47.520;19.186;2022-10-12T02:41:42;100699.38;;;10.07;100.00
49102;BME280;34913;47.520;19.186;2022-10-12T02:44:11;100697.25;;;10.00;100.00
49102;BME280;34913;47.520;19.186;2022-10-12T02:46:39;100696.41;;;9.99;100.00
49102;BME280;34913;47.520;19.186;2022-10-12T02:49:06;100704.91;;;10.04;100.00
49102;BME280;34913;47.520;19.186;2022-10-12T02:51:32;100695.97;;;10.05;100.00
49102;BME280;34913;47.520;19.186;2022-10-12T02:53:59;100701.06;;;10.08;100.00
49102;BME280;34913;47.520;19.186;2022-10-12T02:56:27;100702.44;;;10.14;100.00
49102;BME280;34913;47.520;19.186;2022-10-12T02:58:53;100711.16;;;10.03;100.00
49102;BME280;34913;47.520;19.186;2022-10-12T03:01:18;100714.66;;;9.91;100.00
49102;BME280;34913;47.520;19.186;2022-10-12T03:03:44;100711.66;;;9.83;100.00
49102;BME280;34913;47.520;19.186;2022-10-12T03:06:10;100706.59;;;9.80;100.00
49102;BME280;34913;47.520;19.186;2022-10-12T03:08:36;100710.19;;;9.92;100.00
49102;BME280;34913;47.520;19.186;2022-10-12T03:11:02;100712.19;;;10.01;100.00
49102;BME280;34913;47.520;19.186;2022-10-12T03:13:28;100711.66;;;10.08;100.00
49102;BME280;34913;47.520;19.186;2022-10-12T03:16:00;100712.09;;;10.15;100.00
49102;BME280;34913;47.520;19.186;2022-10-12T03:18:25;100721.03;;;10.14;100.00
49102;BME280;34913;47.520;19.186;2022-10-12T03:20:50;100715.28;;;10.20;100.00
49102;BME280;34913;47.520;19.186;2022-10-12T03:23:16;100720.41;;;10.23;100.00
49102;BME280;34913;47.520;19.186;2022-10-12T03:25:41;100716.69;;;10.26;100.00
49102;BME280;34913;47.520;19.186;2022-10-12T03:28:07;100721.06;;;10.27;100.00
49102;BME280;34913;47.520;19.186;2022-10-12T03:30:32;100724.34;;;10.30;100.00
49102;BME280;34913;47.520;19.186;2022-10-12T03:32:57;100718.91;;;10.32;100.00
49102;BME280;34913;47.520;19.186;2022-10-12T03:35:23;100721.56;;;10.32;100.00
49102;BME280;34913;47.520;19.186;2022-10-12T03:37:48;100717.53;;;10.26;100.00
49102;BME280;34913;47.520;19.186;2022-10-12T03:40:14;100714.53;;;10.18;100.00
49102;BME280;34913;47.520;19.186;2022-10-12T03:42:39;100707.34;;;10.20;100.00
49102;BME280;34913;47.520;19.186;2022-10-12T03:45:05;100713.78;;;10.16;100.00
49102;BME280;34913;47.520;19.186;2022-10-12T03:47:30;100716.97;;;10.08;100.00
49102;BME280;34913;47.520;19.186;2022-10-12T03:49:56;100719.72;;;9.94;100.00
49102;BME280;34913;47.520;19.186;2022-10-12T03:52:21;100720.06;;;9.90;100.00
49102;BME280;34913;47.520;19.186;2022-10-12T03:54:46;100712.41;;;9.85;100.00
49102;BME280;34913;47.520;19.186;2022-10-12T03:57:12;100715.78;;;9.87;100.00
49102;BME280;34913;47.520;19.186;2022-10-12T03:59:37;100714.31;;;9.83;100.00
49102;BME280;34913;47.520;19.186;2022-10-12T04:02:03;100719.63;;;9.83;100.00
49102;BME280;34913;47.520;19.186;2022-10-12T04:04:28;100710.72;;;9.84;100.00
49102;BME280;34913;47.520;19.186;2022-10-12T04:06:53;100707.22;;;9.84;100.00
49102;BME280;34913;47.520;19.186;2022-10-12T04:09:19;100708.38;;;9.79;100.00
49102;BME280;34913;47.520;19.186;2022-10-12T04:11:44;100701.59;;;9.75;100.00
49102;BME280;34913;47.520;19.186;2022-10-12T04:14:09;100706.59;;;9.80;100.00
49102;BME280;34913;47.520;19.186;2022-10-12T04:16:35;100706.66;;;9.78;100.00
49102;BME280;34913;47.520;19.186;2022-10-12T04:19:00;100703.28;;;9.76;100.00
49102;BME280;34913;47.520;19.186;2022-10-12T04:21:27;100700.72;;;9.75;100.00
49102;BME280;34913;47.520;19.186;2022-10-12T04:23:54;100697.34;;;9.73;100.00
49102;BME280;34913;47.520;19.186;2022-10-12T04:26:20;100700.00;;;9.73;100.00
49102;BME280;34913;47.520;19.186;2022-10-12T04:28:45;100713.31;;;9.71;100.00
49102;BME280;34913;47.520;19.186;2022-10-12T04:31:10;100709.94;;;9.57;99.96
49102;BME280;34913;47.520;19.186;2022-10-12T04:33:36;100704.09;;;9.51;100.00
49102;BME280;34913;47.520;19.186;2022-10-12T04:36:01;100710.00;;;9.55;100.00
49102;BME280;34913;47.520;19.186;2022-10-12T04:38:27;100701.94;;;9.44;100.00
49102;BME280;34913;47.520;19.186;2022-10-12T04:40:52;100709.00;;;9.31;100.00
49102;BME280;34913;47.520;19.186;2022-10-12T04:43:18;100716.41;;;9.26;100.00
49102;BME280;34913;47.520;19.186;2022-10-12T04:45:43;100708.13;;;9.17;100.00
49102;BME280;34913;47.520;19.186;2022-10-12T04:48:09;100716.16;;;9.16;100.00
49102;BME280;34913;47.520;19.186;2022-10-12T04:50:34;100709.16;;;9.15;100.00
49102;BME280;34913;47.520;19.186;2022-10-12T04:53:00;100713.00;;;9.23;100.00
49102;BME280;34913;47.520;19.186;2022-10-12T04:55:26;100714.13;;;9.34;100.00
49102;BME280;34913;47.520;19.186;2022-10-12T04:57:51;100720.78;;;9.39;100.00
49102;BME280;34913;47.520;19.186;2022-10-12T05:00:17;100713.91;;;9.37;100.00
49102;BME280;34913;47.520;19.186;2022-10-12T05:02:43;100713.16;;;9.35;100.00
49102;BME280;34913;47.520;19.186;2022-10-12T05:05:08;100718.97;;;9.40;100.00
49102;BME280;34913;47.520;19.186;2022-10-12T05:07:34;100725.91;;;9.42;100.00
49102;BME280;34913;47.520;19.186;2022-10-12T05:09:59;100727.88;;;9.39;100.00
49102;BME280;34913;47.520;19.186;2022-10-12T05:12:25;100725.78;;;9.44;100.00
49102;BME280;34913;47.520;19.186;2022-10-12T05:14:50;100725.34;;;9.37;100.00
49102;BME280;34913;47.520;19.186;2022-10-12T05:17:16;100733.59;;;9.33;100.00
49102;BME280;34913;47.520;19.186;2022-10-12T05:19:41;100731.59;;;9.36;100.00
49102;BME280;34913;47.520;19.186;2022-10-12T05:22:06;100744.84;;;9.36;100.00
49102;BME280;34913;47.520;19.186;2022-10-12T05:24:32;100739.09;;;9.30;100.00
49102;BME280;34913;47.520;19.186;2022-10-12T05:26:57;100739.59;;;9.22;100.00
49102;BME280;34913;47.520;19.186;2022-10-12T05:29:23;100751.19;;;9.34;100.00
49102;BME280;34913;47.520;19.186;2022-10-12T05:31:48;100742.81;;;9.40;100.00
49102;BME280;34913;47.520;19.186;2022-10-12T05:34:13;100738.94;;;9.45;100.00
49102;BME280;34913;47.520;19.186;2022-10-12T05:36:39;100747.38;;;9.65;100.00
49102;BME280;34913;47.520;19.186;2022-10-12T05:39:05;100740.38;;;9.76;100.00
49102;BME280;34913;47.520;19.186;2022-10-12T05:41:30;100745.41;;;9.94;100.00
49102;BME280;34913;47.520;19.186;2022-10-12T05:43:55;100742.88;;;10.05;100.00
49102;BME280;34913;47.520;19.186;2022-10-12T05:46:21;100745.31;;;10.21;100.00
49102;BME280;34913;47.520;19.186;2022-10-12T05:48:47;100743.22;;;10.26;100.00
49102;BME280;34913;47.520;19.186;2022-10-12T05:51:12;100745.56;;;10.43;100.00
49102;BME280;34913;47.520;19.186;2022-10-12T05:53:38;100753.38;;;10.57;100.00
49102;BME280;34913;47.520;19.186;2022-10-12T05:56:03;100750.19;;;10.65;100.00
49102;BME280;34913;47.520;19.186;2022-10-12T05:58:29;100754.00;;;10.74;100.00
49102;BME280;34913;47.520;19.186;2022-10-12T06:01:07;100754.53;;;10.79;100.00
49102;BME280;34913;47.520;19.186;2022-10-12T06:03:33;100753.13;;;10.86;100.00
49102;BME280;34913;47.520;19.186;2022-10-12T06:05:58;100754.81;;;10.87;100.00
49102;BME280;34913;47.520;19.186;2022-10-12T06:08:24;100765.75;;;10.95;100.00
49102;BME280;34913;47.520;19.186;2022-10-12T06:10:50;100768.28;;;10.97;100.00
49102;BME280;34913;47.520;19.186;2022-10-12T06:13:16;100765.91;;;11.05;100.00
49102;BME280;34913;47.520;19.186;2022-10-12T06:15:44;100767.94;;;11.14;100.00
49102;BME280;34913;47.520;19.186;2022-10-12T06:18:10;100770.34;;;11.17;100.00
49102;BME280;34913;47.520;19.186;2022-10-12T06:20:36;100759.91;;;11.27;100.00
49102;BME280;34913;47.520;19.186;2022-10-12T06:23:01;100765.06;;;11.41;100.00
49102;BME280;34913;47.520;19.186;2022-10-12T06:25:27;100774.56;;;11.56;100.00
49102;BME280;34913;47.520;19.186;2022-10-12T06:27:55;100774.84;;;11.64;100.00
49102;BME280;34913;47.520;19.186;2022-10-12T06:30:20;100780.31;;;11.74;100.00
49102;BME280;34913;47.520;19.186;2022-10-12T06:32:46;100773.03;;;11.76;99.85
49102;BME280;34913;47.520;19.186;2022-10-12T06:35:11;100774.78;;;11.77;99.02
49102;BME280;34913;47.520;19.186;2022-10-12T06:37:37;100780.03;;;11.90;100.00
49102;BME280;34913;47.520;19.186;2022-10-12T06:40:03;100775.25;;;12.06;99.97
49102;BME280;34913;47.520;19.186;2022-10-12T06:42:30;100784.38;;;12.26;99.74
49102;BME280;34913;47.520;19.186;2022-10-12T06:44:55;100784.25;;;12.39;98.53
49102;BME280;34913;47.520;19.186;2022-10-12T06:47:21;100793.34;;;12.58;97.83
49102;BME280;34913;47.520;19.186;2022-10-12T06:49:46;100787.66;;;12.74;97.20
49102;BME280;34913;47.520;19.186;2022-10-12T06:52:12;100789.47;;;12.85;94.92
49102;BME280;34913;47.520;19.186;2022-10-12T06:54:37;100789.34;;;12.86;94.01
49102;BME280;34913;47.520;19.186;2022-10-12T06:57:04;100797.09;;;13.01;93.33
49102;BME280;34913;47.520;19.186;2022-10-12T06:59:30;100800.97;;;13.08;91.70
49102;BME280;34913;47.520;19.186;2022-10-12T07:01:55;100798.66;;;13.14;91.45
49102;BME280;34913;47.520;19.186;2022-10-12T07:04:20;100801.94;;;13.29;91.87
49102;BME280;34913;47.520;19.186;2022-10-12T07:06:46;100801.88;;;13.52;91.00
49102;BME280;34913;47.520;19.186;2022-10-12T07:09:11;100800.94;;;13.74;90.91
49102;BME280;34913;47.520;19.186;2022-10-12T07:11:37;100789.72;;;13.91;87.04
49102;BME280;34913;47.520;19.186;2022-10-12T07:14:02;100792.19;;;14.04;85.18
49102;BME280;34913;47.520;19.186;2022-10-12T07:16:27;100785.84;;;14.16;84.72
49102;BME280;34913;47.520;19.186;2022-10-12T07:18:53;100782.69;;;14.11;83.29
49102;BME280;34913;47.520;19.186;2022-10-12T07:21:18;100788.81;;;14.22;83.64
49102;BME280;34913;47.520;19.186;2022-10-12T07:23:44;100782.88;;;14.40;84.47
49102;BME280;34913;47.520;19.186;2022-10-12T07:26:09;100786.38;;;14.61;82.78
49102;BME280;34913;47.520;19.186;2022-10-12T07:28:35;100784.63;;;14.71;81.32
49102;BME280;34913;47.520;19.186;2022-10-12T07:31:05;100786.88;;;14.76;81.31
49102;BME280;34913;47.520;19.186;2022-10-12T07:33:35;100781.28;;;14.79;80.79
49102;BME280;34913;47.520;19.186;2022-10-12T07:36:04;100793.00;;;14.97;81.28
49102;BME280;34913;47.520;19.186;2022-10-12T07:38:30;100785.28;;;15.04;79.26
49102;BME280;34913;47.520;19.186;2022-10-12T07:41:00;100785.47;;;15.12;76.92
49102;BME280;34913;47.520;19.186;2022-10-12T07:43:27;100793.63;;;15.11;75.12
49102;BME280;34913;47.520;19.186;2022-10-12T07:45:52;100780.13;;;15.22;75.94
49102;BME280;34913;47.520;19.186;2022-10-12T07:48:18;100779.59;;;15.38;75.12
49102;BME280;34913;47.520;19.186;2022-10-12T07:50:44;100784.09;;;15.47;75.10
49102;BME280;34913;47.520;19.186;2022-10-12T07:53:09;100780.19;;;15.51;76.94
49102;BME280;34913;47.520;19.186;2022-10-12T07:55:34;100786.09;;;15.54;75.43
49102;BME280;34913;47.520;19.186;2022-10-12T07:58:00;100784.25;;;15.55;74.35
49102;BME280;34913;47.520;19.186;2022-10-12T08:00:27;100780.19;;;15.51;72.66
49102;BME280;34913;47.520;19.186;2022-10-12T08:02:53;100774.00;;;15.60;73.62
49102;BME280;34913;47.520;19.186;2022-10-12T08:05:18;100778.38;;;15.71;74.68
49102;BME280;34913;47.520;19.186;2022-10-12T08:07:49;100780.34;;;15.78;72.23
49102;BME280;34913;47.520;19.186;2022-10-12T08:10:15;100787.28;;;15.81;72.63
49102;BME280;34913;47.520;19.186;2022-10-12T08:12:41;100788.25;;;15.89;72.34
49102;BME280;34913;47.520;19.186;2022-10-12T08:15:07;100785.28;;;15.93;72.74
49102;BME280;34913;47.520;19.186;2022-10-12T08:17:33;100786.81;;;15.95;72.46
49102;BME280;34913;47.520;19.186;2022-10-12T08:19:58;100794.16;;;16.03;71.25
49102;BME280;34913;47.520;19.186;2022-10-12T08:22:24;100792.19;;;15.95;70.77
49102;BME280;34913;47.520;19.186;2022-10-12T08:24:49;100784.28;;;15.94;70.75
49102;BME280;34913;47.520;19.186;2022-10-12T08:27:14;100796.00;;;15.93;71.97
49102;BME280;34913;47.520;19.186;2022-10-12T08:29:40;100788.81;;;15.93;71.52
49102;BME280;34913;47.520;19.186;2022-10-12T08:32:05;100789.38;;;15.87;70.82
49102;BME280;34913;47.520;19.186;2022-10-12T08:34:31;100790.22;;;15.97;70.79
49102;BME280;34913;47.520;19.186;2022-10-12T08:36:57;100790.63;;;16.02;69.43
49102;BME280;34913;47.520;19.186;2022-10-12T08:39:24;100793.03;;;16.15;70.58
49102;BME280;34913;47.520;19.186;2022-10-12T08:47:47;100777.72;;;16.44;69.33
49102;BME280;34913;47.520;19.186;2022-10-12T08:50:33;100782.38;;;16.52;68.59
49102;BME280;34913;47.520;19.186;2022-10-12T08:53:10;100785.34;;;16.39;67.73
49102;BME280;34913;47.520;19.186;2022-10-12T08:55:41;100785.09;;;16.33;69.20
49102;BME280;34913;47.520;19.186;2022-10-12T08:58:21;100782.00;;;16.28;68.45
49102;BME280;34913;47.520;19.186;2022-10-12T09:00:56;100791.47;;;16.22;69.83
49102;BME280;34913;47.520;19.186;2022-10-12T09:06:08;100782.84;;;16.28;69.23
49102;BME280;34913;47.520;19.186;2022-10-12T09:13:52;100793.19;;;16.60;67.31
49102;BME280;34913;47.520;19.186;2022-10-12T09:16:20;100788.09;;;16.67;69.84
49102;BME280;34913;47.520;19.186;2022-10-12T09:19:21;100786.00;;;16.70;68.55
49102;BME280;34913;47.520;19.186;2022-10-12T09:21:48;100794.16;;;16.79;70.20
49102;BME280;34913;47.520;19.186;2022-10-12T09:24:34;100775.91;;;16.82;68.98
49102;BME280;34913;47.520;19.186;2022-10-12T09:27:12;100791.25;;;16.90;68.70
49102;BME280;34913;47.520;19.186;2022-10-12T09:29:39;100790.00;;;16.94;67.94
49102;BME280;34913;47.520;19.186;2022-10-12T09:34:33;100788.56;;;16.99;68.11
49102;BME280;34913;47.520;19.186;2022-10-12T09:37:01;100795.88;;;16.97;69.15
49102;BME280;34913;47.520;19.186;2022-10-12T09:39:32;100790.09;;;17.02;67.98
49102;BME280;34913;47.520;19.186;2022-10-12T09:41:59;100788.66;;;17.08;66.92
49102;BME280;34913;47.520;19.186;2022-10-12T09:44:33;100792.88;;;17.10;65.98
49102;BME280;34913;47.520;19.186;2022-10-12T09:47:05;100795.34;;;17.21;66.97
49102;BME280;34913;47.520;19.186;2022-10-12T09:49:44;100792.66;;;17.21;65.84
49102;BME280;34913;47.520;19.186;2022-10-12T09:52:11;100792.06;;;17.27;66.33
49102;BME280;34913;47.520;19.186;2022-10-12T09:54:45;100794.38;;;17.40;66.50
49102;BME280;34913;47.520;19.186;2022-10-12T09:57:21;100795.47;;;17.47;65.74
49102;BME280;34913;47.520;19.186;2022-10-12T09:59:48;100790.38;;;17.44;64.97
49102;BME280;34913;47.520;19.186;2022-10-12T10:02:22;100791.94;;;17.47;64.33
49102;BME280;34913;47.520;19.186;2022-10-12T10:04:49;100790.09;;;17.47;67.46
49102;BME280;34913;47.520;19.186;2022-10-12T10:07:32;100790.09;;;17.47;64.25
49102;BME280;34913;47.520;19.186;2022-10-12T10:10:16;100787.94;;;17.51;64.38
49102;BME280;34913;47.520;19.186;2022-10-12T10:12:49;100789.63;;;17.34;62.83
49102;BME280;34913;47.520;19.186;2022-10-12T10:15:33;100786.88;;;17.44;64.88
49102;BME280;34913;47.520;19.186;2022-10-12T10:18:01;100778.59;;;17.55;63.48
49102;BME280;34913;47.520;19.186;2022-10-12T10:22:56;100782.41;;;17.80;63.40
49102;BME280;34913;47.520;19.186;2022-10-12T10:25:23;100786.75;;;17.81;64.21
49102;BME280;34913;47.520;19.186;2022-10-12T10:28:08;100777.94;;;17.71;61.90
49102;BME280;34913;47.520;19.186;2022-10-12T10:30:34;100777.38;;;17.85;61.03
49102;BME280;34913;47.520;19.186;2022-10-12T10:33:15;100783.16;;;17.90;63.27
49102;BME280;34913;47.520;19.186;2022-10-12T10:35:54;100782.16;;;17.73;60.75
49102;BME280;34913;47.520;19.186;2022-10-12T10:38:21;100770.47;;;17.65;63.19
49102;BME280;34913;47.520;19.186;2022-10-12T10:40:51;100787.53;;;17.73;62.64
49102;BME280;34913;47.520;19.186;2022-10-12T10:43:27;100783.16;;;17.72;61.32
49102;BME280;34913;47.520;19.186;2022-10-12T10:45:55;100783.34;;;17.61;62.16
49102;BME280;34913;47.520;19.186;2022-10-12T10:48:25;100788.59;;;17.63;63.47
49102;BME280;34913;47.520;19.186;2022-10-12T10:50:57;100784.41;;;17.68;63.84
49102;BME280;34913;47.520;19.186;2022-10-12T10:53:28;100789.91;;;17.76;63.63
49102;BME280;34913;47.520;19.186;2022-10-12T10:56:00;100779.56;;;17.81;64.92
49102;BME280;34913;47.520;19.186;2022-10-12T11:01:32;100772.53;;;18.06;63.84
49102;BME280;34913;47.520;19.186;2022-10-12T11:04:03;100765.69;;;18.12;62.79
49102;BME280;34913;47.520;19.186;2022-10-12T11:09:03;100774.31;;;17.98;60.79
49102;BME280;34913;47.520;19.186;2022-10-12T11:11:32;100764.84;;;17.85;60.62
49102;BME280;34913;47.520;19.186;2022-10-12T11:14:03;100762.66;;;17.89;62.29
49102;BME280;34913;47.520;19.186;2022-10-12T11:16:42;100762.22;;;17.94;62.79
49102;BME280;34913;47.520;19.186;2022-10-12T11:19:25;100761.03;;;17.96;61.53
49102;BME280;34913;47.520;19.186;2022-10-12T11:21:56;100748.69;;;18.03;62.60
49102;BME280;34913;47.520;19.186;2022-10-12T11:24:27;100760.72;;;18.17;62.05
49102;BME280;34913;47.520;19.186;2022-10-12T11:27:03;100755.75;;;18.30;63.10
49102;BME280;34913;47.520;19.186;2022-10-12T11:29:30;100762.38;;;18.44;64.07
49102;BME280;34913;47.520;19.186;2022-10-12T11:32:05;100759.56;;;18.54;61.23
49102;BME280;34913;47.520;19.186;2022-10-12T11:34:47;100759.44;;;18.63;60.55
49102;BME280;34913;47.520;19.186;2022-10-12T11:37:18;100751.00;;;18.76;61.08
49102;BME280;34913;47.520;19.186;2022-10-12T11:39:49;100758.94;;;18.86;57.73
49102;BME280;34913;47.520;19.186;2022-10-12T11:42:28;100760.81;;;18.93;58.90
49102;BME280;34913;47.520;19.186;2022-10-12T11:44:55;100751.06;;;18.92;59.37
49102;BME280;34913;47.520;19.186;2022-10-12T11:50:03;100749.00;;;18.86;59.97
49102;BME280;34913;47.520;19.186;2022-10-12T11:52:50;100745.50;;;18.94;59.04
49102;BME280;34913;47.520;19.186;2022-10-12T11:57:52;100727.38;;;18.96;56.30
49102;BME280;34913;47.520;19.186;2022-10-12T12:00:24;100743.53;;;19.04;57.76
49102;BME280;34913;47.520;19.186;2022-10-12T12:02:56;100744.88;;;19.08;56.96
49102;BME280;34913;47.520;19.186;2022-10-12T12:05:30;100737.94;;;18.89;57.30
49102;BME280;34913;47.520;19.186;2022-10-12T12:07:56;100744.28;;;18.80;58.92
49102;BME280;34913;47.520;19.186;2022-10-12T12:15:36;100731.53;;;18.56;60.35
49102;BME280;34913;47.520;19.186;2022-10-12T12:18:16;100727.75;;;18.67;58.92
49102;BME280;34913;47.520;19.186;2022-10-12T12:23:24;100726.38;;;18.97;64.39
49102;BME280;34913;47.520;19.186;2022-10-12T12:26:14;100729.28;;;19.12;64.33
49102;BME280;34913;47.520;19.186;2022-10-12T12:31:32;100723.09;;;19.28;60.33
49102;BME280;34913;47.520;19.186;2022-10-12T12:34:09;100729.16;;;19.38;60.92
49102;BME280;34913;47.520;19.186;2022-10-12T12:36:40;100735.53;;;19.37;58.83
49102;BME280;34913;47.520;19.186;2022-10-12T12:39:20;100736.56;;;19.36;58.74
49102;BME280;34913;47.520;19.186;2022-10-12T12:41:53;100729.13;;;19.30;59.04
49102;BME280;34913;47.520;19.186;2022-10-12T12:44:39;100727.94;;;19.24;59.55
49102;BME280;34913;47.520;19.186;2022-10-12T12:49:44;100726.09;;;19.24;60.15
49102;BME280;34913;47.520;19.186;2022-10-12T12:54:58;100725.91;;;19.18;59.16
49102;BME280;34913;47.520;19.186;2022-10-12T13:00:19;100718.81;;;19.09;59.27
49102;BME280;34913;47.520;19.186;2022-10-12T13:19:35;100710.81;;;18.75;60.68
49102;BME280;34913;47.520;19.186;2022-10-12T13:22:03;100718.28;;;18.89;62.03
49102;BME280;34913;47.520;19.186;2022-10-12T13:24:40;100716.94;;;18.93;61.31
49102;BME280;34913;47.520;19.186;2022-10-12T13:27:28;100710.53;;;18.94;61.08
49102;BME280;34913;47.520;19.186;2022-10-12T13:30:31;100709.19;;;18.90;58.62
49102;BME280;34913;47.520;19.186;2022-10-12T13:38:29;100704.91;;;18.71;61.93
49102;BME280;34913;47.520;19.186;2022-10-12T13:40:59;100704.41;;;18.67;61.75
49102;BME280;34913;47.520;19.186;2022-10-12T13:43:31;100708.03;;;18.58;60.48
49102;BME280;34913;47.520;19.186;2022-10-12T13:45:59;100709.72;;;18.59;61.83
49102;BME280;34913;47.520;19.186;2022-10-12T13:48:25;100703.13;;;18.54;61.86
49102;BME280;34913;47.520;19.186;2022-10-12T13:51:00;100707.66;;;18.53;63.82
49102;BME280;34913;47.520;19.186;2022-10-12T13:53:34;100709.66;;;18.51;60.82
49102;BME280;34913;47.520;19.186;2022-10-12T13:58:30;100703.03;;;18.37;60.23
49102;BME280;34913;47.520;19.186;2022-10-12T14:00:56;100705.72;;;18.37;60.67
49102;BME280;34913;47.520;19.186;2022-10-12T14:03:24;100697.66;;;18.37;61.90
49102;BME280;34913;47.520;19.186;2022-10-12T14:05:51;100696.34;;;18.41;64.22
49102;BME280;34913;47.520;19.186;2022-10-12T14:08:23;100694.72;;;18.49;62.13
49102;BME280;34913;47.520;19.186;2022-10-12T14:10:49;100693.81;;;18.40;62.48
49102;BME280;34913;47.520;19.186;2022-10-12T14:13:25;100695.59;;;18.31;63.78
49102;BME280;34913;47.520;19.186;2022-10-12T14:15:52;100699.09;;;18.24;62.38
49102;BME280;34913;47.520;19.186;2022-10-12T14:18:38;100689.97;;;18.17;62.10
49102;BME280;34913;47.520;19.186;2022-10-12T14:21:14;100685.50;;;17.99;62.10
49102;BME280;34913;47.520;19.186;2022-10-12T14:23:44;100690.88;;;17.99;62.11